createdAt,value
2018-09-14T00:00:58.945Z,11.27
2018-09-14T00:01:59.200Z,11.30
2018-09-14T00:02:58.927Z,11.40
2018-09-14T00:03:58.918Z,11.35
2018-09-14T00:04:58.902Z,11.26
2018-09-14T00:05:58.892Z,11.33
2018-09-14T00:06:58.886Z,11.22
2018-09-14T00:07:58.868Z,11.23
2018-09-14T00:08:59.138Z,11.19
2018-09-14T00:09:59.110Z,11.15
2018-09-14T00:10:58.840Z,11.14
2018-09-14T00:11:58.836Z,11.14
2018-09-14T00:12:58.814Z,11.18
2018-09-14T00:13:59.070Z,11.15
2018-09-14T00:14:58.799Z,11.05
2018-09-14T00:15:58.924Z,11.07
2018-09-14T00:16:59.053Z,11.08
2018-09-14T00:17:59.063Z,11.07
2018-09-14T00:18:58.752Z,11.08
2018-09-14T00:19:59.021Z,11.07
2018-09-14T00:20:58.735Z,11.10
2018-09-14T00:21:58.717Z,11.05
2018-09-14T00:22:58.828Z,10.96
2018-09-14T00:23:58.707Z,11.00
2018-09-14T00:24:58.693Z,11.02
2018-09-14T00:25:58.701Z,11.00
2018-09-14T00:26:58.733Z,10.96
2018-09-14T00:27:58.651Z,10.97
2018-09-14T00:28:58.650Z,10.99
2018-09-14T00:29:58.632Z,10.99
2018-09-14T00:30:58.618Z,11.02
2018-09-14T00:31:58.878Z,10.99
2018-09-14T00:32:58.593Z,11.00
2018-09-14T00:33:58.590Z,10.99
2018-09-14T00:34:58.581Z,10.92
2018-09-14T00:35:58.579Z,10.93
2018-09-14T00:36:58.632Z,10.93
2018-09-14T00:37:58.559Z,10.86
2018-09-14T00:38:58.533Z,10.84
2018-09-14T00:39:58.564Z,10.92
2018-09-14T00:40:58.510Z,10.87
2018-09-14T00:41:58.497Z,10.90
2018-09-14T00:42:58.498Z,10.92
2018-09-14T00:43:58.476Z,10.97
2018-09-14T00:44:58.485Z,10.87
2018-09-14T00:45:58.736Z,10.87
2018-09-14T00:46:58.444Z,10.81
2018-09-14T00:47:58.430Z,10.89
2018-09-14T00:48:58.687Z,10.87
2018-09-14T00:49:58.415Z,10.87
2018-09-14T00:50:58.403Z,10.90
2018-09-14T00:51:58.386Z,10.86
2018-09-14T00:52:58.494Z,10.93
2018-09-14T00:53:58.369Z,10.87
2018-09-14T00:54:58.356Z,10.90
2018-09-14T00:55:58.344Z,10.93
2018-09-14T00:56:58.332Z,10.89
2018-09-14T00:57:58.322Z,10.94
2018-09-14T00:58:58.316Z,10.96
2018-09-14T00:59:58.307Z,10.94
2018-09-14T01:00:59.352Z,10.86
2018-09-14T01:01:58.277Z,10.87
2018-09-14T01:02:58.265Z,10.90
2018-09-14T01:03:58.261Z,10.89
2018-09-14T01:04:58.260Z,10.89
2018-09-14T01:05:58.235Z,10.92
2018-09-14T01:06:58.230Z,10.86
2018-09-14T01:07:58.344Z,10.87
2018-09-14T01:08:58.205Z,10.93
2018-09-14T01:09:58.191Z,10.92
2018-09-14T01:10:58.179Z,10.96
2018-09-14T01:11:58.167Z,10.87
2018-09-14T01:12:58.420Z,10.89
2018-09-14T01:13:58.407Z,10.93
2018-09-14T01:14:58.138Z,11.00
2018-09-14T01:15:58.125Z,11.05
2018-09-14T01:16:58.383Z,10.99
2018-09-14T01:17:58.108Z,11.04
2018-09-14T01:18:58.092Z,11.02
2018-09-14T01:19:58.087Z,11.04
2018-09-14T01:20:58.071Z,11.00
2018-09-14T01:21:58.058Z,10.96
2018-09-14T01:22:58.049Z,11.02
2018-09-14T01:23:58.302Z,10.96
2018-09-14T01:24:58.032Z,10.96
2018-09-14T01:25:58.016Z,10.94
2018-09-14T01:26:58.005Z,10.89
2018-09-14T01:27:57.991Z,10.82
2018-09-14T01:28:57.986Z,10.81
2018-09-14T01:29:57.980Z,10.82
2018-09-14T01:30:57.964Z,10.79
2018-09-14T01:31:57.948Z,10.82
2018-09-14T01:32:57.940Z,10.75
2018-09-14T01:33:57.927Z,10.71
2018-09-14T01:34:58.199Z,10.71
2018-09-14T01:35:57.910Z,10.63
2018-09-14T01:36:57.905Z,10.69
2018-09-14T01:37:57.884Z,10.64
2018-09-14T01:38:57.872Z,10.57
2018-09-14T01:39:57.863Z,10.57
2018-09-14T01:40:57.866Z,10.51
2018-09-14T01:41:57.840Z,10.48
2018-09-14T01:42:57.842Z,10.54
2018-09-14T01:43:57.821Z,10.54
2018-09-14T01:44:57.818Z,10.56
2018-09-14T01:45:57.802Z,10.54
2018-09-14T01:46:58.305Z,10.51
2018-09-14T01:47:57.791Z,10.48
2018-09-14T01:48:57.764Z,10.51
2018-09-14T01:49:57.759Z,10.57
2018-09-14T01:50:57.744Z,10.40
2018-09-14T01:51:57.732Z,10.42
2018-09-14T01:52:57.980Z,10.41
2018-09-14T01:53:57.723Z,10.42
2018-09-14T01:54:57.700Z,10.44
2018-09-14T01:55:57.686Z,10.40
2018-09-14T01:56:57.674Z,10.38
2018-09-14T01:57:57.664Z,10.34
2018-09-14T01:58:57.655Z,10.44
2018-09-14T01:59:57.645Z,10.42
2018-09-14T02:00:57.667Z,10.41
2018-09-14T02:01:57.634Z,10.37
2018-09-14T02:02:57.622Z,10.38
2018-09-14T02:03:57.708Z,10.41
2018-09-14T02:04:57.614Z,10.34
2018-09-14T02:05:57.580Z,10.35
2018-09-14T02:06:57.566Z,10.41
2018-09-14T02:07:57.561Z,10.28
2018-09-14T02:08:57.546Z,10.33
2018-09-14T02:09:57.533Z,10.30
2018-09-14T02:10:57.525Z,10.25
2018-09-14T02:11:57.514Z,10.17
2018-09-14T02:12:57.500Z,10.20
2018-09-14T02:13:57.491Z,10.17
2018-09-14T02:14:57.740Z,10.19
2018-09-14T02:15:57.577Z,10.17
2018-09-14T02:16:57.460Z,10.16
2018-09-14T02:17:57.449Z,10.16
2018-09-14T02:18:57.438Z,10.19
2018-09-14T02:19:57.427Z,10.17
2018-09-14T02:20:57.416Z,10.22
2018-09-14T02:21:57.682Z,10.20
2018-09-14T02:22:57.496Z,10.17
2018-09-14T02:23:57.401Z,10.12
2018-09-14T02:24:57.371Z,10.05
2018-09-14T02:25:57.376Z,10.10
2018-09-14T02:26:57.361Z,10.04
2018-09-14T02:27:57.340Z,10.10
2018-09-14T02:28:57.325Z,10.04
2018-09-14T02:29:57.321Z,10.07
2018-09-14T02:30:57.602Z,10.10
2018-09-14T02:31:57.307Z,10.07
2018-09-14T02:32:57.289Z,9.91
2018-09-14T02:33:57.803Z,9.91
2018-09-14T02:34:57.260Z,9.98
2018-09-14T02:35:57.511Z,9.94
2018-09-14T02:36:57.238Z,9.92
2018-09-14T02:37:57.228Z,9.95
2018-09-14T02:38:57.275Z,9.82
2018-09-14T02:39:57.207Z,9.84
2018-09-14T02:40:57.196Z,9.91
2018-09-14T02:41:57.183Z,9.83
2018-09-14T02:42:57.172Z,9.82
2018-09-14T02:43:57.165Z,9.92
2018-09-14T02:44:57.155Z,9.86
2018-09-14T02:45:57.142Z,9.80
2018-09-14T02:46:57.392Z,9.86
2018-09-14T02:47:57.131Z,9.87
2018-09-14T02:48:57.124Z,9.80
2018-09-14T02:49:57.097Z,9.83
2018-09-14T02:50:57.488Z,9.84
2018-09-14T02:51:57.072Z,9.91
2018-09-14T02:52:57.073Z,9.83
2018-09-14T02:53:57.069Z,9.86
2018-09-14T02:54:57.039Z,9.80
2018-09-14T02:55:57.038Z,9.80
2018-09-14T02:56:57.017Z,9.87
2018-09-14T02:57:57.009Z,9.84
2018-09-14T02:58:57.000Z,9.76
2018-09-14T02:59:57.009Z,9.77
2018-09-14T03:00:56.983Z,9.82
2018-09-14T03:01:56.968Z,9.76
2018-09-14T03:02:57.216Z,9.65
2018-09-14T03:03:56.945Z,9.68
2018-09-14T03:04:56.938Z,9.68
2018-09-14T03:05:56.937Z,9.68
2018-09-14T03:06:56.912Z,9.74
2018-09-14T03:07:57.170Z,9.62
2018-09-14T03:08:56.948Z,9.73
2018-09-14T03:09:56.876Z,9.68
2018-09-14T03:10:56.879Z,9.65
2018-09-14T03:11:56.862Z,9.62
2018-09-14T03:12:56.842Z,9.69
2018-09-14T03:13:56.839Z,9.59
2018-09-14T03:14:56.833Z,9.66
2018-09-14T03:15:56.811Z,9.55
2018-09-14T03:16:57.318Z,9.62
2018-09-14T03:17:57.045Z,9.62
2018-09-14T03:18:56.775Z,9.65
2018-09-14T03:19:57.031Z,9.56
2018-09-14T03:20:56.757Z,9.66
2018-09-14T03:21:56.746Z,9.72
2018-09-14T03:22:56.758Z,9.69
2018-09-14T03:23:56.984Z,9.68
2018-09-14T03:24:56.713Z,9.62
2018-09-14T03:25:56.705Z,9.55
2018-09-14T03:26:56.981Z,9.54
2018-09-14T03:27:56.679Z,9.48
2018-09-14T03:28:56.686Z,9.51
2018-09-14T03:29:56.762Z,9.50
2018-09-14T03:30:56.775Z,9.41
2018-09-14T03:31:56.659Z,9.46
2018-09-14T03:32:56.742Z,9.47
2018-09-14T03:33:56.621Z,9.43
2018-09-14T03:34:56.606Z,9.46
2018-09-14T03:35:56.599Z,9.34
2018-09-14T03:36:56.581Z,9.44
2018-09-14T03:37:56.567Z,9.41
2018-09-14T03:38:56.568Z,9.46
2018-09-14T03:39:56.558Z,9.36
2018-09-14T03:40:56.550Z,9.44
2018-09-14T03:41:56.527Z,9.50
2018-09-14T03:42:56.517Z,9.50
2018-09-14T03:43:56.770Z,9.43
2018-09-14T03:44:56.493Z,9.46
2018-09-14T03:45:57.207Z,9.32
2018-09-14T03:46:56.471Z,9.41
2018-09-14T03:47:56.462Z,9.44
2018-09-14T03:48:56.459Z,9.44
2018-09-14T03:49:56.444Z,9.44
2018-09-14T03:50:56.427Z,9.47
2018-09-14T03:51:56.416Z,9.47
2018-09-14T03:52:56.404Z,9.46
2018-09-14T03:53:56.520Z,9.50
2018-09-14T03:54:56.393Z,9.48
2018-09-14T03:55:56.376Z,9.48
2018-09-14T03:56:56.375Z,9.41
2018-09-14T03:57:56.377Z,9.47
2018-09-14T03:58:56.342Z,9.48
2018-09-14T03:59:56.327Z,9.44
2018-09-14T04:00:56.426Z,9.39
2018-09-14T04:01:56.320Z,9.34
2018-09-14T04:02:56.296Z,9.37
2018-09-14T04:03:56.285Z,9.31
2018-09-14T04:04:56.277Z,9.34
2018-09-14T04:05:56.282Z,9.34
2018-09-14T04:06:56.255Z,9.36
2018-09-14T04:07:56.354Z,9.34
2018-09-14T04:08:56.244Z,9.37
2018-09-14T04:09:56.226Z,9.40
2018-09-14T04:10:56.487Z,9.34
2018-09-14T04:11:56.204Z,9.40
2018-09-14T04:12:56.190Z,9.36
2018-09-14T04:13:56.176Z,9.43
2018-09-14T04:14:56.169Z,9.39
2018-09-14T04:15:56.164Z,9.46
2018-09-14T04:16:56.406Z,9.41
2018-09-14T04:17:56.139Z,9.43
2018-09-14T04:18:56.733Z,9.43
2018-09-14T04:19:56.114Z,9.43
2018-09-14T04:20:56.185Z,9.44
2018-09-14T04:21:56.100Z,9.55
2018-09-14T04:22:56.080Z,9.56
2018-09-14T04:23:56.081Z,9.68
2018-09-14T04:24:56.077Z,9.83
2018-09-14T04:25:56.072Z,9.83
2018-09-14T04:26:56.035Z,9.98
2018-09-14T04:27:56.295Z,9.99
2018-09-14T04:28:56.162Z,10.04
2018-09-14T04:29:56.006Z,10.12
2018-09-14T04:30:56.259Z,10.13
2018-09-14T04:31:56.017Z,10.23
2018-09-14T04:32:55.969Z,10.25
2018-09-14T04:33:55.957Z,10.31
2018-09-14T04:34:55.947Z,10.31
2018-09-14T04:35:55.965Z,10.42
2018-09-14T04:36:55.934Z,10.34
2018-09-14T04:37:55.942Z,10.38
2018-09-14T04:38:55.903Z,10.56
2018-09-14T04:39:55.896Z,10.53
2018-09-14T04:40:55.885Z,10.56
2018-09-14T04:41:55.879Z,10.51
2018-09-14T04:42:56.126Z,10.54
2018-09-14T04:43:55.866Z,10.56
2018-09-14T04:44:55.844Z,10.51
2018-09-14T04:45:55.836Z,10.48
2018-09-14T04:46:55.938Z,10.54
2018-09-14T04:47:55.810Z,10.64
2018-09-14T04:48:55.794Z,10.57
2018-09-14T04:49:55.788Z,10.59
2018-09-14T04:50:56.101Z,10.64
2018-09-14T04:51:55.766Z,10.57
2018-09-14T04:52:55.788Z,10.59
2018-09-14T04:53:55.740Z,10.64
2018-09-14T04:54:55.993Z,10.74
2018-09-14T04:55:55.722Z,10.71
2018-09-14T04:56:55.814Z,10.72
2018-09-14T04:57:55.700Z,10.76
2018-09-14T04:58:55.683Z,10.76
2018-09-14T04:59:55.682Z,10.76
2018-09-14T05:00:55.675Z,10.76
2018-09-14T05:01:55.650Z,10.78
2018-09-14T05:02:55.764Z,10.82
2018-09-14T05:03:55.783Z,10.90
2018-09-14T05:04:55.644Z,10.89
2018-09-14T05:05:55.608Z,10.86
2018-09-14T05:06:55.623Z,10.93
2018-09-14T05:07:55.596Z,10.93
2018-09-14T05:08:55.843Z,10.92
2018-09-14T05:09:55.827Z,10.96
2018-09-14T05:10:55.559Z,10.94
2018-09-14T05:11:55.548Z,11.04
2018-09-14T05:12:55.692Z,11.00
2018-09-14T05:13:55.865Z,11.02
2018-09-14T05:14:55.512Z,11.02
2018-09-14T05:15:55.538Z,11.02
2018-09-14T05:16:55.494Z,11.05
2018-09-14T05:17:55.483Z,11.04
2018-09-14T05:18:55.466Z,11.17
2018-09-14T05:19:55.476Z,11.14
2018-09-14T05:20:55.466Z,11.25
2018-09-14T05:21:55.479Z,11.19
2018-09-14T05:22:55.444Z,11.25
2018-09-14T05:23:55.463Z,11.23
2018-09-14T05:24:55.503Z,11.25
2018-09-14T05:25:55.393Z,11.19
2018-09-14T05:26:55.380Z,11.32
2018-09-14T05:27:55.488Z,11.32
2018-09-14T05:28:55.380Z,11.35
2018-09-14T05:29:55.349Z,11.36
2018-09-14T05:30:55.342Z,11.40
2018-09-14T05:31:55.325Z,11.40
2018-09-14T05:32:55.318Z,11.32
2018-09-14T05:33:55.574Z,11.30
2018-09-14T05:34:55.295Z,11.36
2018-09-14T05:35:55.286Z,11.36
2018-09-14T05:36:55.324Z,11.37
2018-09-14T05:37:55.263Z,11.36
2018-09-14T05:38:55.258Z,11.44
2018-09-14T05:39:55.242Z,11.60
2018-09-14T05:40:55.232Z,11.59
2018-09-14T05:41:55.268Z,11.52
2018-09-14T05:42:55.245Z,11.57
2018-09-14T05:43:55.210Z,11.60
2018-09-14T05:44:55.192Z,11.57
2018-09-14T05:45:55.444Z,11.54
2018-09-14T05:46:55.170Z,11.65
2018-09-14T05:47:55.416Z,11.63
2018-09-14T05:48:55.140Z,11.55
2018-09-14T05:49:55.136Z,11.70
2018-09-14T05:50:55.118Z,11.69
2018-09-14T05:51:55.123Z,11.66
2018-09-14T05:52:55.110Z,11.70
2018-09-14T05:53:55.199Z,11.72
2018-09-14T05:54:55.076Z,11.80
2018-09-14T05:55:55.095Z,11.80
2018-09-14T05:56:55.559Z,11.83
2018-09-14T05:57:55.444Z,11.91
2018-09-14T05:58:55.030Z,11.90
2018-09-14T05:59:55.034Z,11.95
2018-09-14T06:00:55.289Z,11.99
2018-09-14T06:01:55.268Z,12.09
2018-09-14T06:02:54.993Z,12.03
2018-09-14T06:03:54.981Z,12.13
2018-09-14T06:04:54.970Z,12.13
2018-09-14T06:05:54.956Z,12.17
2018-09-14T06:06:54.974Z,12.12
2018-09-14T06:07:55.077Z,12.27
2018-09-14T06:08:54.927Z,12.27
2018-09-14T06:09:55.045Z,12.27
2018-09-14T06:10:54.911Z,12.29
2018-09-14T06:11:54.905Z,12.37
2018-09-14T06:12:54.892Z,12.37
2018-09-14T06:13:54.882Z,12.35
2018-09-14T06:14:54.860Z,12.35
2018-09-14T06:15:54.848Z,12.22
2018-09-14T06:16:55.163Z,12.31
2018-09-14T06:17:54.823Z,12.28
2018-09-14T06:18:56.321Z,12.42
2018-09-14T06:19:54.804Z,12.36
2018-09-14T06:20:54.794Z,12.43
2018-09-14T06:21:54.798Z,12.37
2018-09-14T06:22:55.119Z,12.43
2018-09-14T06:23:54.761Z,12.49
2018-09-14T06:24:54.753Z,12.58
2018-09-14T06:25:54.738Z,12.55
2018-09-14T06:26:54.734Z,12.58
2018-09-14T06:27:54.716Z,12.67
2018-09-14T06:28:54.722Z,12.76
2018-09-14T06:29:54.710Z,12.72
2018-09-14T06:30:54.946Z,12.75
2018-09-14T06:31:54.667Z,12.76
2018-09-14T06:32:54.670Z,12.73
2018-09-14T06:33:54.649Z,12.79
2018-09-14T06:34:54.643Z,12.70
2018-09-14T06:35:54.624Z,12.76
2018-09-14T06:36:54.630Z,12.70
2018-09-14T06:37:54.603Z,12.73
2018-09-14T06:38:54.594Z,12.80
2018-09-14T06:39:54.695Z,12.83
2018-09-14T06:40:54.569Z,12.86
2018-09-14T06:41:54.565Z,12.90
2018-09-14T06:42:54.571Z,12.95
2018-09-14T06:43:54.541Z,12.97
2018-09-14T06:44:54.937Z,13.01
2018-09-14T06:45:54.520Z,13.12
2018-09-14T06:46:54.506Z,13.15
2018-09-14T06:47:54.500Z,13.11
2018-09-14T06:48:54.494Z,13.20
2018-09-14T06:49:54.471Z,13.23
2018-09-14T06:50:54.460Z,13.20
2018-09-14T06:51:54.479Z,13.23
2018-09-14T06:52:54.437Z,13.20
2018-09-14T06:53:54.703Z,13.20
2018-09-14T06:54:54.680Z,13.33
2018-09-14T06:55:54.406Z,13.30
2018-09-14T06:56:55.618Z,13.33
2018-09-14T06:57:54.427Z,13.42
2018-09-14T06:58:54.388Z,13.38
2018-09-14T06:59:54.741Z,13.44
2018-09-14T07:00:54.369Z,13.49
2018-09-14T07:01:54.502Z,13.42
2018-09-14T07:02:54.330Z,13.46
2018-09-14T07:03:54.638Z,13.46
2018-09-14T07:04:54.561Z,13.44
2018-09-14T07:05:54.305Z,13.59
2018-09-14T07:06:54.319Z,13.56
2018-09-14T07:07:54.281Z,13.59
2018-09-14T07:08:54.352Z,13.62
2018-09-14T07:09:54.256Z,13.72
2018-09-14T07:10:54.251Z,13.85
2018-09-14T07:11:54.231Z,13.81
2018-09-14T07:12:56.155Z,13.87
2018-09-14T07:13:54.222Z,13.90
2018-09-14T07:14:56.392Z,13.93
2018-09-14T07:15:54.192Z,13.96
2018-09-14T07:16:54.177Z,14.00
2018-09-14T07:17:54.174Z,13.95
2018-09-14T07:18:54.158Z,13.97
2018-09-14T07:19:54.153Z,13.95
2018-09-14T07:20:54.133Z,13.92
2018-09-14T07:21:54.215Z,13.99
2018-09-14T07:22:54.249Z,14.08
2018-09-14T07:23:54.109Z,14.11
2018-09-14T07:24:54.494Z,14.17
2018-09-14T07:25:54.363Z,14.28
2018-09-14T07:26:54.072Z,14.25
2018-09-14T07:27:54.088Z,14.22
2018-09-14T07:28:54.070Z,14.26
2018-09-14T07:29:54.300Z,14.26
2018-09-14T07:30:54.727Z,14.29
2018-09-14T07:31:54.099Z,14.32
2018-09-14T07:32:54.012Z,14.40
2018-09-14T07:33:53.990Z,14.47
2018-09-14T07:34:54.140Z,14.51
2018-09-14T07:35:53.975Z,14.51
2018-09-14T07:36:53.953Z,14.58
2018-09-14T07:37:54.814Z,14.68
2018-09-14T07:38:53.939Z,14.68
2018-09-14T07:39:53.973Z,14.69
2018-09-14T07:40:53.957Z,14.68
2018-09-14T07:41:56.662Z,14.73
2018-09-14T07:42:54.047Z,14.73
2018-09-14T07:43:54.010Z,14.73
2018-09-14T07:44:54.143Z,14.88
2018-09-14T07:45:53.989Z,15.00
2018-09-14T07:46:54.005Z,15.07
2018-09-14T07:47:54.103Z,15.00
2018-09-14T07:48:53.873Z,15.09
2018-09-14T07:49:53.890Z,15.19
2018-09-14T07:50:53.843Z,15.25
2018-09-14T07:51:53.794Z,15.28
2018-09-14T07:52:53.814Z,15.31
2018-09-14T07:53:54.065Z,15.42
2018-09-14T07:54:53.773Z,15.47
2018-09-14T07:55:53.749Z,15.51
2018-09-14T07:56:53.745Z,15.51
2018-09-14T07:57:53.723Z,15.43
2018-09-14T07:58:54.276Z,15.46
2018-09-14T07:59:53.774Z,15.55
2018-09-14T08:00:53.692Z,15.55
2018-09-14T08:01:53.728Z,15.52
2018-09-14T08:02:53.787Z,15.62
2018-09-14T08:03:53.661Z,15.59
2018-09-14T08:04:53.653Z,15.61
2018-09-14T08:05:53.656Z,15.68
2018-09-14T08:06:53.645Z,15.59
2018-09-14T08:07:53.626Z,15.67
2018-09-14T08:08:53.603Z,15.68
2018-09-14T08:09:53.604Z,15.65
2018-09-14T08:10:53.600Z,15.57
2018-09-14T08:11:53.620Z,15.65
2018-09-14T08:12:53.839Z,15.72
2018-09-14T08:13:53.805Z,15.61
2018-09-14T08:14:53.557Z,15.68
2018-09-14T08:15:58.866Z,15.57
2018-09-14T08:16:53.533Z,15.65
2018-09-14T08:17:53.502Z,15.55
2018-09-14T08:18:54.006Z,15.64
2018-09-14T08:19:53.499Z,15.57
2018-09-14T08:20:53.550Z,15.61
2018-09-14T08:21:53.662Z,15.65
2018-09-14T08:22:53.496Z,15.67
2018-09-14T08:23:53.879Z,15.64
2018-09-14T08:24:53.434Z,15.76
2018-09-14T08:25:53.688Z,15.73
2018-09-14T08:26:53.433Z,15.76
2018-09-14T08:27:53.415Z,15.84
2018-09-14T08:28:53.386Z,15.88
2018-09-14T08:29:53.390Z,15.91
2018-09-14T08:30:53.723Z,15.92
2018-09-14T08:31:53.369Z,15.97
2018-09-14T08:32:53.341Z,15.92
2018-09-14T08:33:53.652Z,15.92
2018-09-14T08:34:53.333Z,16.10
2018-09-14T08:35:53.307Z,16.10
2018-09-14T08:36:53.432Z,16.21
2018-09-14T08:37:53.295Z,16.17
2018-09-14T08:38:53.291Z,16.10
2018-09-14T08:39:53.277Z,16.24
2018-09-14T08:40:53.513Z,16.15
2018-09-14T08:41:53.635Z,16.23
2018-09-14T08:42:53.365Z,16.26
2018-09-14T08:43:53.540Z,16.32
2018-09-14T08:44:53.475Z,16.38
2018-09-14T08:45:53.199Z,16.46
2018-09-14T08:46:53.192Z,16.46
2018-09-14T08:47:53.255Z,16.51
2018-09-14T08:48:53.215Z,16.50
2018-09-14T08:49:53.701Z,16.57
2018-09-14T08:50:53.419Z,16.57
2018-09-14T08:51:53.265Z,16.56
2018-09-14T08:52:53.142Z,16.60
2018-09-14T08:53:53.257Z,16.66
2018-09-14T08:54:53.106Z,16.72
2018-09-14T08:55:53.134Z,16.74
2018-09-14T08:56:53.079Z,16.71
2018-09-14T08:57:53.091Z,16.76
2018-09-14T08:58:53.628Z,16.84
2018-09-14T08:59:53.069Z,16.78
2018-09-14T09:00:53.094Z,16.89
2018-09-14T09:01:53.025Z,16.91
2018-09-14T09:02:53.009Z,16.83
2018-09-14T09:03:53.150Z,16.89
2018-09-14T09:04:52.995Z,16.97
2018-09-14T09:05:52.991Z,16.96
2018-09-14T09:06:53.255Z,17.02
2018-09-14T09:07:53.030Z,17.05
2018-09-14T09:08:53.232Z,17.05
2018-09-14T09:09:52.942Z,17.12
2018-09-14T09:10:53.389Z,17.20
2018-09-14T09:11:53.035Z,17.19
2018-09-14T09:12:52.912Z,17.20
2018-09-14T09:13:53.023Z,17.20
2018-09-14T09:14:52.903Z,17.14
2018-09-14T09:15:53.136Z,17.20
2018-09-14T09:16:52.878Z,17.24
2018-09-14T09:17:53.238Z,17.31
2018-09-14T09:18:52.841Z,17.46
2018-09-14T09:19:52.892Z,17.49
2018-09-14T09:20:53.078Z,17.51
2018-09-14T09:21:52.806Z,17.54
2018-09-14T09:22:52.794Z,17.63
2018-09-14T09:23:52.801Z,17.71
2018-09-14T09:24:54.972Z,17.80
2018-09-14T09:25:52.762Z,17.82
2018-09-14T09:26:52.753Z,17.92
2018-09-14T09:27:52.785Z,17.97
2018-09-14T09:28:52.746Z,17.95
2018-09-14T09:29:52.978Z,17.98
2018-09-14T09:30:52.716Z,17.86
2018-09-14T09:31:52.699Z,17.95
2018-09-14T09:32:52.685Z,17.97
2018-09-14T09:33:52.952Z,18.08
2018-09-14T09:34:52.659Z,18.10
2018-09-14T09:35:52.670Z,18.38
2018-09-14T09:36:52.643Z,18.45
2018-09-14T09:37:52.637Z,18.56
2018-09-14T09:38:52.619Z,18.63
2018-09-14T09:39:52.738Z,18.62
2018-09-14T09:40:53.073Z,18.99
2018-09-14T09:41:52.582Z,19.07
2018-09-14T09:42:53.672Z,19.33
2018-09-14T09:43:52.988Z,19.45
2018-09-14T09:44:52.818Z,19.52
2018-09-14T09:45:52.550Z,19.59
2018-09-14T09:46:52.532Z,19.45
2018-09-14T09:47:52.519Z,19.47
2018-09-14T09:48:52.601Z,19.58
2018-09-14T09:49:52.505Z,19.74
2018-09-14T09:50:52.601Z,19.70
2018-09-14T09:51:52.501Z,19.76
2018-09-14T09:52:52.610Z,19.77
2018-09-14T09:53:52.456Z,19.82
2018-09-14T09:54:52.449Z,20.00
2018-09-14T09:55:52.466Z,20.04
2018-09-14T09:56:52.992Z,20.14
2018-09-14T09:57:52.413Z,20.29
2018-09-14T09:58:52.602Z,20.36
2018-09-14T09:59:52.412Z,20.62
2018-09-14T10:00:52.393Z,20.78
2018-09-14T10:01:52.638Z,20.78
2018-09-14T10:02:52.513Z,20.80
2018-09-14T10:03:52.403Z,20.34
2018-09-14T10:04:52.352Z,20.06
2018-09-14T10:05:52.329Z,19.82
2018-09-14T10:06:52.337Z,19.79
2018-09-14T10:07:52.560Z,19.74
2018-09-14T10:08:52.297Z,19.70
2018-09-14T10:09:52.421Z,19.56
2018-09-14T10:10:52.282Z,19.59
2018-09-14T10:11:52.279Z,19.55
2018-09-14T10:12:52.418Z,19.55
2018-09-14T10:13:52.502Z,19.63
2018-09-14T10:14:52.257Z,19.58
2018-09-14T10:15:52.231Z,19.73
2018-09-14T10:16:52.228Z,19.67
2018-09-14T10:17:52.727Z,19.79
2018-09-14T10:18:52.188Z,19.81
2018-09-14T10:19:52.202Z,19.89
2018-09-14T10:20:52.379Z,19.88
2018-09-14T10:21:52.217Z,19.85
2018-09-14T10:22:52.152Z,19.91
2018-09-14T10:23:52.148Z,19.89
2018-09-14T10:24:52.392Z,19.88
2018-09-14T10:25:52.137Z,19.89
2018-09-14T10:26:52.163Z,19.91
2018-09-14T10:27:52.126Z,20.00
2018-09-14T10:28:52.078Z,20.02
2018-09-14T10:29:52.105Z,19.89
2018-09-14T10:30:52.052Z,19.91
2018-09-14T10:31:52.318Z,20.03
2018-09-14T10:32:52.030Z,19.91
2018-09-14T10:33:52.319Z,20.00
2018-09-14T10:34:52.354Z,20.07
2018-09-14T10:35:52.017Z,20.16
2018-09-14T10:36:52.034Z,19.89
2018-09-14T10:37:52.242Z,19.76
2018-09-14T10:38:51.964Z,20.04
2018-09-14T10:39:51.957Z,20.09
2018-09-14T10:40:52.105Z,20.00
2018-09-14T10:41:51.940Z,20.19
2018-09-14T10:42:52.150Z,20.25
2018-09-14T10:43:51.909Z,20.34
2018-09-14T10:44:52.172Z,20.29
2018-09-14T10:45:51.928Z,20.21
2018-09-14T10:46:51.935Z,20.28
2018-09-14T10:47:51.883Z,20.26
2018-09-14T10:48:51.960Z,20.31
2018-09-14T10:49:52.336Z,20.19
2018-09-14T10:50:52.337Z,20.21
2018-09-14T10:51:51.840Z,20.18
2018-09-14T10:52:51.821Z,20.16
2018-09-14T10:53:51.801Z,20.19
2018-09-14T10:54:51.818Z,20.19
2018-09-14T10:55:51.778Z,20.22
2018-09-14T10:56:51.805Z,20.16
2018-09-14T10:57:51.778Z,20.16
2018-09-14T10:58:51.772Z,20.18
2018-09-14T10:59:52.020Z,20.22
2018-09-14T11:00:51.742Z,20.21
2018-09-14T11:01:51.737Z,20.03
2018-09-14T11:02:51.972Z,20.14
2018-09-14T11:03:51.703Z,20.22
2018-09-14T11:04:51.684Z,20.36
2018-09-14T11:05:51.962Z,20.47
2018-09-14T11:06:51.717Z,20.62
2018-09-14T11:07:51.917Z,20.65
2018-09-14T11:08:51.899Z,20.66
2018-09-14T11:09:51.670Z,20.59
2018-09-14T11:10:51.613Z,20.65
2018-09-14T11:11:51.631Z,20.65
2018-09-14T11:12:51.597Z,20.63
2018-09-14T11:13:51.843Z,20.62
2018-09-14T11:14:51.702Z,20.36
2018-09-14T11:15:51.580Z,20.32
2018-09-14T11:16:51.572Z,20.43
2018-09-14T11:17:51.809Z,20.43
2018-09-14T11:18:51.584Z,20.37
2018-09-14T11:19:51.542Z,20.34
2018-09-14T11:20:51.506Z,20.39
2018-09-14T11:21:51.489Z,20.34
2018-09-14T11:22:51.757Z,20.22
2018-09-14T11:23:51.471Z,20.37
2018-09-14T11:24:51.588Z,20.60
2018-09-14T11:25:51.460Z,20.80
2018-09-14T11:26:51.437Z,20.82
2018-09-14T11:27:51.479Z,20.74
2018-09-14T11:28:53.074Z,20.90
2018-09-14T11:29:51.409Z,21.03
2018-09-14T11:30:51.390Z,21.17
2018-09-14T11:31:51.396Z,21.37
2018-09-14T11:32:51.376Z,21.45
2018-09-14T11:33:51.373Z,21.54
2018-09-14T11:34:51.353Z,21.60
2018-09-14T11:35:51.342Z,21.67
2018-09-14T11:36:51.344Z,21.62
2018-09-14T11:37:51.417Z,21.61
2018-09-14T11:38:51.347Z,21.62
2018-09-14T11:39:51.310Z,21.79
2018-09-14T11:40:51.283Z,21.83
2018-09-14T11:41:51.283Z,21.85
2018-09-14T11:42:51.266Z,21.80
2018-09-14T11:43:51.249Z,21.76
2018-09-14T11:44:51.416Z,21.88
2018-09-14T11:45:51.543Z,21.64
2018-09-14T11:46:51.218Z,21.64
2018-09-14T11:47:51.221Z,21.66
2018-09-14T11:48:51.240Z,21.72
2018-09-14T11:49:51.183Z,21.79
2018-09-14T11:50:51.175Z,21.82
2018-09-14T11:51:51.240Z,21.72
2018-09-14T11:52:51.175Z,21.77
2018-09-14T11:53:51.145Z,21.73
2018-09-14T11:54:51.151Z,21.89
2018-09-14T11:55:51.266Z,21.99
2018-09-14T11:56:51.112Z,22.07
2018-09-14T11:57:51.108Z,22.15
2018-09-14T11:58:51.945Z,22.07
2018-09-14T11:59:51.344Z,22.18
2018-09-14T12:00:51.082Z,22.15
2018-09-14T12:01:51.072Z,22.13
2018-09-14T12:02:51.070Z,22.15
2018-09-14T12:03:52.035Z,21.98
2018-09-14T12:04:51.023Z,21.76
2018-09-14T12:05:51.135Z,21.67
2018-09-14T12:06:51.013Z,21.64
2018-09-14T12:07:51.264Z,21.64
2018-09-14T12:08:51.122Z,21.77
2018-09-14T12:09:50.979Z,21.79
2018-09-14T12:10:51.354Z,21.76
2018-09-14T12:11:50.970Z,21.82
2018-09-14T12:12:50.975Z,21.62
2018-09-14T12:13:51.002Z,21.58
2018-09-14T12:14:50.923Z,21.50
2018-09-14T12:15:51.505Z,21.52
2018-09-14T12:16:51.246Z,21.51
2018-09-14T12:17:50.921Z,21.64
2018-09-14T12:18:50.895Z,21.58
2018-09-14T12:19:50.899Z,21.55
2018-09-14T12:20:50.911Z,21.40
2018-09-14T12:21:50.845Z,21.42
2018-09-14T12:22:50.846Z,21.36
2018-09-14T12:23:50.824Z,21.35
2018-09-14T12:24:50.812Z,21.37
2018-09-14T12:25:50.799Z,21.42
2018-09-14T12:26:50.786Z,21.42
2018-09-14T12:27:50.777Z,21.43
2018-09-14T12:28:50.920Z,21.46
2018-09-14T12:29:50.768Z,21.37
2018-09-14T12:30:51.016Z,21.40
2018-09-14T12:31:51.003Z,21.18
2018-09-14T12:32:50.722Z,21.22
2018-09-14T12:33:50.716Z,21.17
2018-09-14T12:34:50.712Z,20.97
2018-09-14T12:35:50.703Z,20.95
2018-09-14T12:36:50.677Z,20.77
2018-09-14T12:37:50.684Z,20.82
2018-09-14T12:38:50.678Z,20.84
2018-09-14T12:39:51.059Z,20.92
2018-09-14T12:40:50.641Z,20.75
2018-09-14T12:41:50.630Z,20.67
2018-09-14T12:42:50.612Z,20.55
2018-09-14T12:43:50.615Z,20.52
2018-09-14T12:44:50.588Z,20.32
2018-09-14T12:45:50.594Z,20.29
2018-09-14T12:46:50.848Z,20.44
2018-09-14T12:47:50.578Z,20.52
2018-09-14T12:48:50.899Z,20.55
2018-09-14T12:49:50.541Z,20.52
2018-09-14T12:50:50.536Z,20.58
2018-09-14T12:51:50.530Z,20.55
2018-09-14T12:52:50.505Z,20.55
2018-09-14T12:53:50.570Z,20.66
2018-09-14T12:54:50.485Z,20.63
2018-09-14T12:55:50.490Z,20.63
2018-09-14T12:56:50.472Z,20.52